Time;durP1;ratioP1;P1;durP2;ratioP2;P2;SDS_P1;SDS_P2;PMS_P1;PMS_P2;Temp;Humidity;BMP_temperature;BMP_pressure;BME280_temperature;BME280_humidity;BME280_pressure;Samples;Min_cycle;Max_cycle;Signal;HPM_P1;HPM_P2
2021/09/25 00:01:57;;;;;;;10.50;5.22;;;10.90;98.00;;;;;;5066881;28;20293;-70
2021/09/25 00:04:25;;;;;;;6.75;4.45;;;10.90;98.00;;;;;;5069577;28;20020;-70
2021/09/25 00:06:51;;;;;;;9.73;5.22;;;10.70;98.00;;;;;;5068566;28;20021;-70
2021/09/25 00:09:17;;;;;;;8.65;5.55;;;10.50;98.00;;;;;;5067362;28;20119;-70
2021/09/25 00:11:43;;;;;;;8.80;5.68;;;10.60;98.00;;;;;;5067291;28;20459;-70
2021/09/25 00:14:09;;;;;;;8.55;4.85;;;10.60;98.00;;;;;;5067161;28;20021;-70
2021/09/25 00:16:34;;;;;;;10.07;5.70;;;10.70;98.00;;;;;;5068085;28;20388;-70
2021/09/25 00:19:02;;;;;;;9.30;5.65;;;10.70;98.00;;;;;;5064945;28;20025;-70
2021/09/25 00:21:28;;;;;;;8.52;5.50;;;10.80;98.00;;;;;;5066714;28;20111;-69
2021/09/25 00:23:53;;;;;;;8.35;5.15;;;10.80;98.00;;;;;;5066671;28;20021;-70
2021/09/25 00:26:23;;;;;;;9.10;5.22;;;10.90;98.00;;;;;;5064268;28;20024;-70
2021/09/25 00:28:49;;;;;;;8.23;5.35;;;10.90;98.00;;;;;;5066979;28;20077;-69
2021/09/25 00:31:15;;;;;;;9.85;5.18;;;11.00;98.00;;;;;;5066589;28;20286;-70
2021/09/25 00:33:41;;;;;;;11.40;6.18;;;11.00;98.00;;;;;;5065024;28;20104;-70
2021/09/25 00:36:07;;;;;;;8.55;5.63;;;11.00;98.00;;;;;;5065888;28;20038;-70
2021/09/25 00:38:33;;;;;;;8.73;4.90;;;10.90;98.00;;;;;;5064091;28;20115;-70
2021/09/25 00:40:59;;;;;;;8.23;5.22;;;10.80;98.00;;;;;;5065404;28;20565;-70
2021/09/25 00:43:25;;;;;;;8.13;4.82;;;10.90;98.00;;;;;;5066256;28;20429;-70
2021/09/25 00:45:59;;;;;;;7.25;4.82;;;10.90;98.00;;;;;;5065927;28;20113;-70
2021/09/25 00:48:25;;;;;;;7.30;4.75;;;11.00;98.00;;;;;;5067387;28;20317;-70
2021/09/25 00:50:51;;;;;;;10.13;5.38;;;11.10;98.00;;;;;;5067242;28;20024;-69
2021/09/25 00:53:16;;;;;;;9.02;4.93;;;11.10;98.00;;;;;;5067528;28;20107;-69
2021/09/25 00:55:42;;;;;;;9.13;5.60;;;11.00;98.00;;;;;;5066717;28;20038;-69
2021/09/25 00:58:11;;;;;;;8.57;5.65;;;10.90;98.00;;;;;;5064063;28;20025;-69
2021/09/25 01:00:40;;;;;;;9.68;5.25;;;10.90;98.00;;;;;;5067035;28;20058;-69
2021/09/25 01:03:05;;;;;;;7.55;4.75;;;10.90;98.00;;;;;;5066259;28;20347;-71
2021/09/25 01:05:44;;;;;;;8.18;5.55;;;10.80;98.00;;;;;;5067644;28;20016;-70
2021/09/25 01:08:10;;;;;;;8.45;5.47;;;10.80;98.00;;;;;;5065205;28;20177;-70
2021/09/25 01:10:36;;;;;;;9.45;6.35;;;10.80;98.00;;;;;;5065705;28;20150;-70
2021/09/25 01:13:02;;;;;;;10.18;5.70;;;10.80;98.00;;;;;;5065041;28;20025;-70
2021/09/25 01:15:27;;;;;;;8.88;5.70;;;10.80;98.00;;;;;;5070973;28;20079;-70
2021/09/25 01:17:53;;;;;;;10.43;5.85;;;10.80;98.00;;;;;;5070161;28;20055;-70
2021/09/25 01:20:19;;;;;;;10.80;5.53;;;10.90;98.00;;;;;;5065907;28;20151;-70
2021/09/25 01:22:45;;;;;;;9.65;5.60;;;11.00;98.00;;;;;;5062919;28;20055;-70
2021/09/25 01:25:12;;;;;;;10.95;6.03;;;11.10;98.00;;;;;;5067283;28;20077;-69
2021/09/25 01:27:38;;;;;;;9.32;5.80;;;11.00;98.00;;;;;;5067071;28;20425;-70
2021/09/25 01:30:07;;;;;;;8.52;5.43;;;10.90;98.00;;;;;;5066023;28;20040;-70
2021/09/25 01:32:33;;;;;;;8.60;5.07;;;10.70;98.00;;;;;;5066905;28;20033;-70
2021/09/25 01:35:00;;;;;;;9.88;4.97;;;10.60;98.00;;;;;;5068859;28;20317;-69
2021/09/25 01:37:26;;;;;;;8.05;5.32;;;10.40;98.00;;;;;;5066639;28;20024;-69
2021/09/25 01:39:51;;;;;;;9.68;6.45;;;10.30;98.00;;;;;;5067963;28;20035;-70
2021/09/25 01:42:17;;;;;;;10.38;5.55;;;10.20;98.00;;;;;;5068753;28;20017;-70
2021/09/25 01:44:43;;;;;;;9.95;5.45;;;10.20;98.00;;;;;;5070263;28;20348;-71
2021/09/25 01:47:08;;;;;;;8.60;5.82;;;10.20;98.00;;;;;;5069688;28;20029;-70
2021/09/25 01:49:34;;;;;;;8.35;5.18;;;10.20;98.00;;;;;;5069159;28;20056;-70
2021/09/25 01:52:00;;;;;;;11.30;5.70;;;10.20;98.00;;;;;;5069633;28;20047;-70
2021/09/25 01:54:25;;;;;;;8.73;5.40;;;10.30;98.00;;;;;;5069359;28;20058;-69
2021/09/25 01:56:51;;;;;;;8.27;5.57;;;10.30;98.00;;;;;;5068432;28;20031;-69
2021/09/25 01:59:16;;;;;;;8.13;5.32;;;10.40;98.00;;;;;;5068891;28;20329;-69
2021/09/25 02:01:42;;;;;;;10.80;5.50;;;10.40;98.00;;;;;;5070563;28;20431;-70
2021/09/25 02:04:08;;;;;;;7.90;4.88;;;10.50;98.00;;;;;;5070708;28;20082;-69
2021/09/25 02:06:33;;;;;;;7.78;5.13;;;10.60;98.00;;;;;;5070534;28;20313;-70
2021/09/25 02:08:59;;;;;;;9.40;5.07;;;10.70;98.00;;;;;;5065114;28;20021;-70
2021/09/25 02:11:25;;;;;;;9.27;4.93;;;10.70;98.00;;;;;;5069616;28;20120;-71
2021/09/25 02:13:52;;;;;;;9.38;5.20;;;10.70;98.00;;;;;;5072049;28;20025;-70
2021/09/25 02:16:18;;;;;;;15.90;5.85;;;10.70;98.00;;;;;;5069320;28;20036;-70
2021/09/25 02:18:44;;;;;;;11.57;4.82;;;10.70;98.00;;;;;;5067726;28;20074;-70
2021/09/25 02:21:10;;;;;;;9.38;5.38;;;10.80;98.00;;;;;;5066863;28;20169;-69
2021/09/25 02:23:36;;;;;;;11.18;5.03;;;10.70;98.00;;;;;;5069030;28;20063;-70
2021/09/25 02:26:03;;;;;;;7.70;5.10;;;10.70;98.00;;;;;;5066382;28;20382;-70
2021/09/25 02:28:29;;;;;;;11.27;5.13;;;10.70;98.00;;;;;;5069938;28;20133;-70
2021/09/25 02:30:56;;;;;;;8.88;4.72;;;10.80;98.00;;;;;;5069734;28;20036;-70
2021/09/25 02:33:22;;;;;;;7.85;4.82;;;10.80;98.00;;;;;;5068649;28;20111;-70
2021/09/25 02:35:49;;;;;;;7.90;4.75;;;10.80;98.00;;;;;;5068505;28;20119;-70
2021/09/25 02:38:16;;;;;;;7.25;4.68;;;10.80;98.00;;;;;;5069312;28;20316;-70
2021/09/25 02:40:43;;;;;;;7.30;4.75;;;10.80;98.00;;;;;;5067933;28;20024;-70
2021/09/25 02:43:08;;;;;;;7.63;4.45;;;10.70;98.00;;;;;;5068572;28;20043;-69
2021/09/25 02:45:34;;;;;;;7.93;4.65;;;10.70;98.00;;;;;;5068330;28;20036;-69
2021/09/25 02:48:00;;;;;;;7.43;4.85;;;10.70;98.00;;;;;;5067917;28;20036;-69
2021/09/25 02:50:26;;;;;;;7.93;4.50;;;10.90;98.00;;;;;;5070542;28;20031;-70
2021/09/25 02:52:52;;;;;;;9.98;4.47;;;10.90;98.00;;;;;;5066448;28;20025;-70
2021/09/25 02:55:19;;;;;;;8.90;5.20;;;10.90;98.00;;;;;;5071225;28;20098;-70
2021/09/25 02:57:44;;;;;;;7.75;5.28;;;10.90;98.00;;;;;;5066460;28;20641;-70
2021/09/25 03:00:18;;;;;;;7.05;4.40;;;10.90;98.00;;;;;;5069260;28;20028;-71
2021/09/25 03:02:44;;;;;;;7.50;4.97;;;10.90;98.00;;;;;;5068665;28;20021;-70
2021/09/25 03:05:12;;;;;;;9.35;5.10;;;10.90;98.00;;;;;;5069862;28;20046;-70
2021/09/25 03:07:38;;;;;;;8.10;4.65;;;10.90;98.00;;;;;;5067827;28;20059;-71
2021/09/25 03:10:05;;;;;;;9.43;5.28;;;10.80;98.00;;;;;;5068221;28;20025;-70
2021/09/25 03:12:30;;;;;;;8.45;5.07;;;10.80;98.00;;;;;;5069398;28;20787;-70
2021/09/25 03:14:56;;;;;;;8.48;4.97;;;10.80;98.00;;;;;;5069311;28;20044;-70
2021/09/25 03:17:22;;;;;;;8.18;4.72;;;10.80;98.00;;;;;;5067499;28;20047;-70
2021/09/25 03:19:48;;;;;;;7.75;5.18;;;10.90;98.00;;;;;;5069830;28;20048;-71
2021/09/25 03:22:15;;;;;;;7.70;5.30;;;10.90;98.00;;;;;;5068712;28;20024;-71
2021/09/25 03:24:42;;;;;;;8.52;5.43;;;10.70;98.00;;;;;;5069343;28;20021;-71
2021/09/25 03:27:07;;;;;;;8.30;5.38;;;10.70;98.00;;;;;;5068761;28;20032;-70
2021/09/25 03:29:33;;;;;;;8.95;4.95;;;10.70;98.00;;;;;;5067810;28;20090;-71
2021/09/25 03:32:02;;;;;;;8.27;5.55;;;10.70;98.00;;;;;;5068356;28;20048;-70
2021/09/25 03:34:28;;;;;;;8.57;5.32;;;10.60;98.00;;;;;;5068206;28;20032;-70
2021/09/25 03:36:54;;;;;;;10.55;5.88;;;10.50;98.00;;;;;;5068397;28;20024;-69
2021/09/25 03:39:19;;;;;;;8.70;5.32;;;10.60;98.00;;;;;;5069703;28;20062;-70
2021/09/25 03:41:45;;;;;;;7.97;5.10;;;10.60;98.00;;;;;;5067740;28;20036;-71
2021/09/25 03:44:11;;;;;;;8.43;5.47;;;10.70;98.00;;;;;;5067726;28;20321;-70
2021/09/25 03:46:37;;;;;;;8.88;5.65;;;10.70;98.00;;;;;;5067337;28;20099;-69
2021/09/25 03:49:03;;;;;;;9.02;5.55;;;10.70;98.00;;;;;;5068985;28;20356;-69
2021/09/25 03:51:29;;;;;;;11.90;5.18;;;10.70;98.00;;;;;;5068548;28;20096;-69
2021/09/25 03:53:54;;;;;;;8.23;5.18;;;10.70;98.00;;;;;;5068059;28;20103;-69
2021/09/25 03:56:21;;;;;;;9.73;5.25;;;10.70;98.00;;;;;;5067113;28;20336;-69
2021/09/25 03:58:47;;;;;;;12.02;5.30;;;10.70;98.00;;;;;;5066510;28;20023;-70
2021/09/25 04:01:12;;;;;;;9.38;5.57;;;10.40;98.00;;;;;;5066974;28;20033;-71
2021/09/25 04:03:39;;;;;;;8.73;5.40;;;10.20;98.00;;;;;;5066892;28;20037;-71
2021/09/25 04:06:04;;;;;;;9.82;5.10;;;10.00;98.00;;;;;;5067408;28;20032;-72
2021/09/25 04:08:31;;;;;;;9.32;5.30;;;9.80;98.00;;;;;;5068213;28;20035;-71
2021/09/25 04:10:57;;;;;;;8.30;5.60;;;9.60;98.00;;;;;;5067196;28;20028;-70
2021/09/25 04:13:23;;;;;;;9.20;5.97;;;9.60;98.00;;;;;;5068971;28;20020;-70
2021/09/25 04:15:49;;;;;;;8.95;6.03;;;9.50;98.00;;;;;;5067828;28;21492;-70
2021/09/25 04:18:15;;;;;;;10.27;6.45;;;9.40;98.00;;;;;;5067561;28;20020;-70
2021/09/25 04:20:44;;;;;;;9.10;6.32;;;9.30;98.00;;;;;;5069390;28;20024;-71
2021/09/25 04:23:10;;;;;;;8.93;6.05;;;9.20;98.00;;;;;;5067256;28;20028;-70
2021/09/25 04:25:39;;;;;;;11.60;6.90;;;9.00;98.00;;;;;;5066023;28;20032;-70
2021/09/25 04:28:06;;;;;;;11.57;7.07;;;8.90;98.00;;;;;;5066516;28;20103;-71
2021/09/25 04:30:38;;;;;;;12.02;6.70;;;8.80;98.00;;;;;;5067197;28;20028;-69
2021/09/25 04:33:04;;;;;;;10.98;6.97;;;8.60;98.00;;;;;;5066076;28;20130;-71
2021/09/25 04:35:30;;;;;;;8.77;6.03;;;8.50;98.00;;;;;;5068549;28;20031;-71
2021/09/25 04:37:56;;;;;;;9.32;5.72;;;8.40;98.00;;;;;;5067682;28;20040;-70
2021/09/25 04:40:23;;;;;;;10.95;7.53;;;8.30;98.00;;;;;;5067563;28;20032;-69
2021/09/25 04:42:48;;;;;;;11.07;6.30;;;8.30;97.90;;;;;;5064837;28;20419;-72
2021/09/25 04:45:14;;;;;;;10.18;6.35;;;8.20;97.20;;;;;;5067221;28;20058;-70
2021/09/25 04:47:41;;;;;;;13.30;6.95;;;8.30;97.00;;;;;;5066301;28;20290;-70
2021/09/25 04:50:07;;;;;;;10.00;6.03;;;8.50;96.00;;;;;;5068012;28;20070;-71
2021/09/25 04:52:33;;;;;;;10.70;6.70;;;8.70;96.10;;;;;;5067469;28;20036;-71
2021/09/25 04:54:59;;;;;;;11.98;7.20;;;8.80;96.60;;;;;;5068222;28;20025;-70
2021/09/25 04:57:24;;;;;;;11.52;6.53;;;8.70;97.30;;;;;;5066259;28;20617;-71
2021/09/25 04:59:50;;;;;;;10.73;5.82;;;8.50;97.10;;;;;;5067533;28;20108;-72
2021/09/25 05:02:16;;;;;;;10.90;6.07;;;8.40;96.90;;;;;;5066222;28;20107;-71
2021/09/25 05:04:41;;;;;;;10.00;6.40;;;8.50;96.50;;;;;;5067310;28;20020;-70
2021/09/25 05:07:07;;;;;;;10.38;6.70;;;8.50;97.00;;;;;;5066126;28;20032;-71
2021/09/25 05:09:33;;;;;;;11.70;6.47;;;8.50;96.00;;;;;;5066858;28;20481;-70
2021/09/25 05:11:58;;;;;;;10.13;6.43;;;8.60;95.90;;;;;;5065337;28;20127;-70
2021/09/25 05:14:24;;;;;;;11.50;7.40;;;8.60;96.50;;;;;;5067513;28;20115;-70
2021/09/25 05:16:49;;;;;;;11.82;7.50;;;8.60;96.00;;;;;;5070699;28;20024;-70
2021/09/25 05:19:15;;;;;;;15.43;9.13;;;8.50;96.10;;;;;;5070139;28;20056;-70
2021/09/25 05:21:41;;;;;;;15.57;9.73;;;8.50;96.10;;;;;;5071201;28;20367;-70
2021/09/25 05:24:07;;;;;;;14.98;7.63;;;8.50;95.40;;;;;;5070136;28;20028;-70
2021/09/25 05:26:35;;;;;;;14.25;8.35;;;8.60;95.60;;;;;;5069351;28;20032;-70
2021/09/25 05:29:02;;;;;;;13.27;8.57;;;8.60;95.50;;;;;;5069349;28;20036;-70
2021/09/25 05:31:28;;;;;;;13.93;8.02;;;8.60;96.20;;;;;;5069841;28;20309;-70
2021/09/25 05:33:53;;;;;;;10.80;7.47;;;8.60;95.60;;;;;;5070603;28;20020;-70
2021/09/25 05:36:19;;;;;;;13.93;7.60;;;8.70;95.70;;;;;;5070174;28;20025;-70
2021/09/25 05:38:44;;;;;;;11.93;7.22;;;8.70;95.90;;;;;;5065840;28;20025;-72
2021/09/25 05:41:10;;;;;;;13.30;7.28;;;8.70;95.90;;;;;;5076491;28;20028;-71
2021/09/25 05:43:36;;;;;;;10.90;7.05;;;8.70;95.80;;;;;;5078806;28;20321;-71
2021/09/25 05:46:02;;;;;;;10.55;6.55;;;8.70;95.70;;;;;;5077880;28;20286;-72
2021/09/25 05:48:29;;;;;;;9.98;5.97;;;8.80;95.20;;;;;;5078928;28;20286;-71
2021/09/25 05:50:55;;;;;;;11.23;7.03;;;8.90;94.90;;;;;;5078079;28;20111;-70
2021/09/25 05:53:20;;;;;;;10.82;6.80;;;8.90;95.70;;;;;;5078597;28;20357;-71
2021/09/25 05:55:46;;;;;;;10.05;6.55;;;8.80;95.60;;;;;;5077494;28;20025;-70
2021/09/25 05:58:11;;;;;;;11.90;6.93;;;8.90;94.50;;;;;;5073478;28;20413;-71
2021/09/25 06:00:37;;;;;;;14.07;7.03;;;9.10;94.30;;;;;;5077756;28;20029;-71
2021/09/25 06:03:03;;;;;;;10.63;6.68;;;9.30;94.60;;;;;;5077959;28;20401;-70
2021/09/25 06:05:33;;;;;;;11.23;6.70;;;9.40;95.00;;;;;;5078505;28;20021;-71
2021/09/25 06:07:59;;;;;;;9.82;6.68;;;9.50;95.10;;;;;;5073384;28;20040;-70
2021/09/25 06:10:25;;;;;;;12.60;6.85;;;9.60;95.20;;;;;;5077283;28;20047;-70
2021/09/25 06:12:54;;;;;;;10.32;7.03;;;9.70;95.20;;;;;;5076895;28;20090;-72
2021/09/25 06:15:19;;;;;;;9.85;6.63;;;9.80;95.90;;;;;;5066347;28;20033;-70
2021/09/25 06:17:45;;;;;;;11.32;7.28;;;9.90;96.30;;;;;;5068008;28;20035;-70
2021/09/25 06:20:11;;;;;;;11.02;6.32;;;10.10;96.40;;;;;;5056962;28;20112;-70
2021/09/25 06:22:37;;;;;;;9.18;6.47;;;10.20;96.90;;;;;;5074014;28;20025;-71
2021/09/25 06:25:04;;;;;;;10.32;6.80;;;10.40;97.30;;;;;;5077139;28;20321;-71
2021/09/25 06:27:30;;;;;;;11.10;6.30;;;10.50;97.60;;;;;;5072916;28;20025;-70
2021/09/25 06:29:55;;;;;;;9.30;6.00;;;10.70;97.80;;;;;;5058135;28;20052;-70
2021/09/25 06:32:21;;;;;;;10.10;5.95;;;10.80;98.00;;;;;;5076430;28;20016;-70
2021/09/25 06:34:47;;;;;;;9.23;6.20;;;11.00;98.00;;;;;;5076729;28;20325;-71
2021/09/25 06:37:13;;;;;;;8.30;5.47;;;11.10;98.00;;;;;;5077706;28;20028;-70
2021/09/25 06:39:38;;;;;;;9.60;5.85;;;11.30;98.00;;;;;;5077653;28;20075;-70
2021/09/25 06:42:04;;;;;;;9.80;5.85;;;11.60;98.00;;;;;;5076070;28;20158;-70
2021/09/25 06:44:30;;;;;;;10.82;5.95;;;11.70;98.00;;;;;;5077754;28;20024;-71
2021/09/25 06:46:55;;;;;;;9.95;5.85;;;11.80;98.00;;;;;;5075597;28;20320;-71
2021/09/25 06:49:23;;;;;;;10.13;5.40;;;11.80;98.00;;;;;;5074781;28;20114;-70
2021/09/25 06:51:50;;;;;;;9.45;5.43;;;12.00;98.00;;;;;;5071527;28;20036;-71
2021/09/25 06:54:15;;;;;;;8.52;5.43;;;12.10;98.00;;;;;;5077184;28;20040;-71
2021/09/25 06:56:41;;;;;;;9.07;5.97;;;12.30;98.00;;;;;;5076080;28;20047;-70
2021/09/25 06:59:07;;;;;;;9.50;5.85;;;12.40;98.00;;;;;;5075360;28;20330;-70
2021/09/25 07:01:33;;;;;;;11.05;6.85;;;12.50;98.00;;;;;;5076943;28;20076;-70
2021/09/25 07:03:58;;;;;;;15.18;8.10;;;12.70;98.00;;;;;;5063171;28;20310;-70
2021/09/25 07:06:24;;;;;;;13.40;8.50;;;12.80;98.00;;;;;;5057264;28;20483;-70
2021/09/25 07:08:52;;;;;;;27.73;16.50;;;13.00;98.00;;;;;;5069019;28;20012;-70
2021/09/25 07:11:18;;;;;;;34.20;19.73;;;13.10;98.00;;;;;;5072022;28;20042;-69
2021/09/25 07:13:43;;;;;;;36.33;22.50;;;13.20;98.00;;;;;;5077220;28;20032;-70
2021/09/25 07:16:13;;;;;;;37.97;22.00;;;13.30;98.00;;;;;;5076360;28;20439;-70
2021/09/25 07:18:39;;;;;;;37.35;21.80;;;13.50;98.00;;;;;;5072233;28;20033;-70
2021/09/25 07:21:05;;;;;;;31.88;19.95;;;13.60;97.50;;;;;;5073666;28;20036;-71
2021/09/25 07:23:32;;;;;;;30.13;18.42;;;13.90;97.30;;;;;;5071513;28;20062;-70
2021/09/25 07:25:58;;;;;;;28.02;17.08;;;14.00;96.70;;;;;;5065741;28;20070;-69
2021/09/25 07:28:24;;;;;;;29.73;16.52;;;14.10;97.00;;;;;;5075111;28;20020;-70
2021/09/25 07:30:53;;;;;;;21.95;13.82;;;14.30;96.90;;;;;;5062905;28;20047;-70
2021/09/25 07:33:18;;;;;;;23.98;12.73;;;14.60;96.30;;;;;;5065820;28;20032;-70
2021/09/25 07:35:44;;;;;;;16.40;10.20;;;14.80;96.10;;;;;;5070281;28;20020;-70
2021/09/25 07:38:11;;;;;;;17.15;10.80;;;15.00;95.30;;;;;;5069883;28;20059;-69
2021/09/25 07:40:37;;;;;;;14.35;9.35;;;15.10;95.30;;;;;;5062936;28;20167;-69
2021/09/25 07:43:04;;;;;;;13.48;9.00;;;15.10;94.70;;;;;;5056362;28;20032;-68
2021/09/25 07:45:30;;;;;;;14.70;9.55;;;15.10;95.20;;;;;;5074049;28;20024;-72
2021/09/25 07:47:57;;;;;;;14.23;7.22;;;15.20;95.10;;;;;;5074428;28;20032;-71
2021/09/25 07:50:23;;;;;;;11.90;7.90;;;15.40;95.10;;;;;;5068838;28;20025;-71
2021/09/25 07:52:50;;;;;;;11.27;7.55;;;15.60;94.40;;;;;;5061265;28;20024;-71
2021/09/25 07:55:16;;;;;;;9.48;6.40;;;15.80;94.20;;;;;;5062272;28;20028;-71
2021/09/25 07:57:43;;;;;;;11.70;7.10;;;15.90;93.40;;;;;;5066957;28;20110;-71
2021/09/25 08:00:11;;;;;;;9.63;7.20;;;16.10;92.90;;;;;;5075687;28;20394;-71
2021/09/25 08:02:37;;;;;;;9.77;6.25;;;16.30;92.80;;;;;;5074440;28;20031;-70
2021/09/25 08:05:04;;;;;;;8.73;5.18;;;16.40;92.20;;;;;;5071171;28;20028;-71
2021/09/25 08:07:29;;;;;;;12.05;6.22;;;16.70;91.80;;;;;;5071008;28;20096;-71
2021/09/25 08:09:55;;;;;;;10.63;5.13;;;17.20;90.90;;;;;;5071405;28;20384;-70
2021/09/25 08:12:21;;;;;;;8.65;5.72;;;17.80;89.40;;;;;;5065818;28;20086;-71
2021/09/25 08:14:47;;;;;;;8.82;5.22;;;18.90;86.50;;;;;;5075418;28;20498;-71
2021/09/25 08:17:12;;;;;;;10.50;5.72;;;20.60;82.00;;;;;;5075757;28;20028;-71
2021/09/25 08:19:38;;;;;;;12.65;5.03;;;22.20;77.40;;;;;;5074175;28;20024;-70
2021/09/25 08:22:04;;;;;;;7.30;4.68;;;23.50;75.40;;;;;;5072562;28;20025;-70
2021/09/25 08:24:30;;;;;;;11.00;4.80;;;24.40;71.50;;;;;;5075045;28;20371;-71
2021/09/25 08:26:56;;;;;;;7.43;4.35;;;25.00;69.40;;;;;;5073735;28;20028;-71
2021/09/25 08:29:22;;;;;;;9.00;4.35;;;25.20;69.10;;;;;;5070931;28;20028;-71
2021/09/25 08:31:47;;;;;;;8.00;4.93;;;25.50;68.50;;;;;;5060296;28;20422;-70
2021/09/25 08:34:13;;;;;;;7.50;4.70;;;25.90;67.80;;;;;;5071808;28;20032;-71
2021/09/25 08:36:40;;;;;;;7.22;4.78;;;25.40;68.40;;;;;;5072597;28;20471;-71
2021/09/25 08:39:07;;;;;;;9.23;4.90;;;25.70;68.10;;;;;;5069823;28;20313;-71
2021/09/25 08:41:33;;;;;;;9.32;4.60;;;25.80;68.00;;;;;;5073717;28;20028;-71
2021/09/25 08:43:59;;;;;;;9.82;4.72;;;25.50;68.00;;;;;;5074316;28;20052;-71
2021/09/25 08:46:25;;;;;;;22.58;6.35;;;25.30;70.40;;;;;;5074759;28;20020;-71
2021/09/25 08:48:51;;;;;;;7.90;4.40;;;25.90;68.60;;;;;;5074940;28;20021;-71
2021/09/25 08:51:17;;;;;;;4.93;3.10;;;25.80;68.40;;;;;;5074416;28;20371;-71
2021/09/25 08:53:42;;;;;;;7.90;3.70;;;26.70;67.40;;;;;;5074578;28;20439;-71
2021/09/25 08:56:09;;;;;;;6.65;3.60;;;26.30;68.40;;;;;;5072749;28;20335;-71
2021/09/25 08:58:35;;;;;;;6.50;3.20;;;26.90;67.90;;;;;;5075400;28;20025;-71
2021/09/25 09:01:00;;;;;;;5.63;3.10;;;27.30;66.90;;;;;;5074907;28;20020;-71
2021/09/25 09:03:40;;;;;;;6.20;3.13;;;26.60;68.00;;;;;;5070553;28;20078;-71
2021/09/25 09:06:14;;;;;;;7.35;3.30;;;26.90;67.10;;;;;;5072065;28;20329;-72
2021/09/25 09:08:41;;;;;;;6.38;3.13;;;27.50;66.80;;;;;;5062379;28;20416;-71
2021/09/25 09:11:08;;;;;;;5.75;3.38;;;27.60;67.00;;;;;;5073653;28;20070;-71
2021/09/25 09:13:36;;;;;;;5.35;3.38;;;27.40;66.60;;;;;;5074811;28;20302;-71
2021/09/25 09:16:07;;;;;;;5.22;3.30;;;26.60;68.60;;;;;;5074494;28;20051;-71
2021/09/25 09:18:40;;;;;;;6.10;3.55;;;27.00;68.50;;;;;;5074375;28;20052;-71
2021/09/25 09:21:20;;;;;;;5.22;2.95;;;27.40;67.80;;;;;;5074044;28;20360;-71
2021/09/25 09:23:50;;;;;;;4.70;3.17;;;27.30;66.50;;;;;;5074266;28;20412;-71
2021/09/25 09:26:22;;;;;;;6.75;3.30;;;27.10;67.40;;;;;;5072834;28;20024;-71
2021/09/25 09:28:50;;;;;;;4.85;3.05;;;27.50;67.30;;;;;;5075069;28;20052;-71
2021/09/25 09:31:17;;;;;;;4.65;3.03;;;27.10;66.70;;;;;;5074923;28;20025;-71
2021/09/25 09:33:48;;;;;;;9.30;3.88;;;27.10;66.50;;;;;;5075093;28;20025;-71
2021/09/25 09:36:17;;;;;;;6.45;3.30;;;26.50;67.30;;;;;;5071761;28;20024;-71
2021/09/25 09:38:50;;;;;;;5.00;3.38;;;26.90;66.50;;;;;;5055244;28;20100;-71
2021/09/25 09:41:21;;;;;;;6.53;3.40;;;26.80;66.10;;;;;;5063623;28;20025;-71
2021/09/25 09:43:48;;;;;;;6.43;3.55;;;27.20;65.80;;;;;;5056058;28;20021;-71
2021/09/25 09:46:14;;;;;;;6.20;3.55;;;27.60;65.30;;;;;;5067785;28;20364;-71
2021/09/25 09:48:40;;;;;;;6.80;3.25;;;27.50;64.60;;;;;;5068565;28;20387;-71
2021/09/25 09:51:06;;;;;;;7.47;3.40;;;27.30;65.00;;;;;;5074381;28;20032;-70
2021/09/25 09:53:43;;;;;;;6.43;3.53;;;27.00;66.70;;;;;;5074678;28;20108;-70
2021/09/25 09:56:22;;;;;;;12.27;5.32;;;26.60;67.00;;;;;;5073594;28;20036;-71
2021/09/25 09:59:04;;;;;;;6.47;3.75;;;26.90;68.10;;;;;;5074386;28;20021;-71
2021/09/25 10:01:30;;;;;;;8.20;4.97;;;26.70;67.70;;;;;;5074567;28;20067;-71
2021/09/25 10:03:58;;;;;;;7.53;4.00;;;26.70;67.80;;;;;;5077570;28;20048;-71
2021/09/25 10:06:24;;;;;;;5.40;3.70;;;26.60;67.80;;;;;;5072978;28;20067;-71
2021/09/25 10:08:50;;;;;;;5.78;3.55;;;26.70;66.90;;;;;;5075497;28;20052;-71
2021/09/25 10:11:19;;;;;;;4.88;2.92;;;27.10;66.20;;;;;;5071421;28;20388;-71
2021/09/25 10:13:45;;;;;;;7.60;3.97;;;27.40;67.20;;;;;;5077738;28;20056;-71
2021/09/25 10:16:13;;;;;;;7.45;3.70;;;27.20;66.30;;;;;;5070223;28;20131;-71
2021/09/25 10:18:41;;;;;;;5.97;4.03;;;26.80;67.60;;;;;;5076573;28;20031;-71
2021/09/25 10:21:11;;;;;;;6.28;3.78;;;27.10;67.60;;;;;;5077582;28;20415;-71
2021/09/25 10:24:01;;;;;;;6.85;3.78;;;27.40;66.80;;;;;;5077207;28;20024;-70
2021/09/25 10:26:27;;;;;;;8.77;3.97;;;27.10;67.90;;;;;;5070443;28;20107;-71
2021/09/25 10:29:02;;;;;;;7.60;3.92;;;26.40;71.10;;;;;;5077423;28;20775;-70
2021/09/25 10:31:28;;;;;;;7.20;4.20;;;26.70;68.80;;;;;;5075571;28;20036;-69
2021/09/25 10:34:27;;;;;;;6.80;4.15;;;26.50;69.50;;;;;;5077556;28;20082;-70
2021/09/25 10:36:58;;;;;;;6.43;4.00;;;26.70;69.10;;;;;;5067292;28;20024;-71
2021/09/25 10:39:28;;;;;;;7.88;4.10;;;27.20;67.40;;;;;;5077110;28;20051;-71
2021/09/25 10:42:06;;;;;;;8.57;4.38;;;27.80;67.30;;;;;;5075834;28;20032;-72
2021/09/25 10:44:39;;;;;;;6.85;4.15;;;27.90;67.60;;;;;;5077317;28;20060;-73
2021/09/25 10:47:08;;;;;;;8.70;4.30;;;27.70;66.90;;;;;;5077224;28;20291;-72
2021/09/25 10:50:01;;;;;;;6.65;4.28;;;28.00;66.20;;;;;;5077504;28;20029;-73
2021/09/25 10:53:04;;;;;;;5.72;3.70;;;28.30;66.20;;;;;;5074213;28;20047;-72
2021/09/25 10:55:30;;;;;;;6.78;3.80;;;28.90;63.30;;;;;;5076907;28;20023;-72
2021/09/25 10:58:24;;;;;;;6.85;3.72;;;28.40;62.80;;;;;;5076181;28;20099;-70
2021/09/25 11:00:52;;;;;;;6.68;3.70;;;28.50;63.30;;;;;;5063793;28;20104;-70
2021/09/25 11:03:43;;;;;;;5.85;3.50;;;28.40;63.90;;;;;;5076743;28;20436;-70
2021/09/25 11:06:27;;;;;;;7.50;4.03;;;28.40;63.40;;;;;;5075009;28;20040;-70
2021/09/25 11:09:15;;;;;;;5.18;3.28;;;29.00;63.00;;;;;;5076919;28;20016;-70
2021/09/25 11:11:45;;;;;;;6.05;3.70;;;29.50;62.90;;;;;;5061239;28;20405;-71
2021/09/25 11:14:25;;;;;;;6.68;3.50;;;30.10;60.00;;;;;;5075898;28;20028;-70
2021/09/25 11:17:05;;;;;;;5.32;3.35;;;30.10;59.60;;;;;;5072836;28;20032;-70
2021/09/25 11:19:34;;;;;;;6.13;3.80;;;30.00;60.30;;;;;;5076648;28;20421;-70
2021/09/25 11:22:05;;;;;;;6.72;3.50;;;30.10;60.60;;;;;;5070788;28;20429;-70
2021/09/25 11:24:33;;;;;;;7.65;3.88;;;29.90;61.10;;;;;;5074401;28;20109;-70
2021/09/25 11:27:01;;;;;;;7.43;3.53;;;29.80;61.60;;;;;;5074750;28;20095;-70
2021/09/25 11:29:27;;;;;;;7.95;3.72;;;29.50;60.80;;;;;;5075901;28;20111;-70
2021/09/25 11:32:07;;;;;;;7.63;3.83;;;28.90;60.90;;;;;;5076001;28;20089;-70
2021/09/25 11:34:35;;;;;;;7.05;3.20;;;28.70;62.30;;;;;;5068588;28;20413;-70
2021/09/25 11:37:04;;;;;;;5.57;3.22;;;28.70;61.50;;;;;;5069175;28;20163;-70
2021/09/25 11:39:42;;;;;;;5.53;3.72;;;28.70;62.30;;;;;;5075605;28;20157;-70
2021/09/25 11:42:11;;;;;;;7.30;3.88;;;28.70;62.40;;;;;;5071823;28;20031;-70
2021/09/25 11:44:54;;;;;;;6.07;3.72;;;28.80;62.70;;;;;;5076502;28;20035;-70
2021/09/25 11:47:49;;;;;;;7.20;3.80;;;28.70;63.20;;;;;;5074203;28;20048;-70
2021/09/25 11:50:27;;;;;;;5.88;3.28;;;28.50;61.00;;;;;;5072814;28;20040;-70
2021/09/25 11:52:56;;;;;;;8.57;3.60;;;28.60;62.90;;;;;;5075598;28;20096;-70
2021/09/25 11:55:25;;;;;;;5.88;2.83;;;29.10;63.30;;;;;;5075572;28;20024;-70
2021/09/25 11:57:55;;;;;;;4.82;3.05;;;29.30;61.20;;;;;;5074332;28;20025;-70
2021/09/25 12:00:26;;;;;;;6.82;2.80;;;29.20;59.80;;;;;;5074216;28;20032;-70
2021/09/25 12:02:54;;;;;;;5.53;3.08;;;29.20;61.00;;;;;;5075852;28;20036;-70
2021/09/25 12:05:38;;;;;;;5.43;2.75;;;29.10;60.60;;;;;;5072431;28;20069;-70
2021/09/25 12:08:08;;;;;;;;;;;29.00;61.40;;;;;;5076242;28;20410;-70
2021/09/25 12:10:43;;;;;;;5.60;3.10;;;28.60;62.40;;;;;;5074454;28;19958;-70
2021/09/25 12:13:12;;;;;;;5.57;3.15;;;29.00;63.70;;;;;;5068300;28;20035;-70
2021/09/25 12:15:41;;;;;;;7.25;3.65;;;28.70;63.50;;;;;;5065588;28;20052;-70
2021/09/25 12:18:06;;;;;;;5.55;2.75;;;29.10;60.50;;;;;;5070249;28;20016;-70
2021/09/25 12:20:32;;;;;;;4.85;2.70;;;29.20;61.20;;;;;;5075233;28;20036;-70
2021/09/25 12:23:04;;;;;;;4.72;2.72;;;29.10;60.10;;;;;;5075131;28;20028;-70
2021/09/25 12:25:32;;;;;;;7.43;3.42;;;28.70;60.30;;;;;;5075326;28;20028;-70
2021/09/25 12:27:57;;;;;;;4.57;2.45;;;28.80;60.40;;;;;;5074258;28;20027;-70
2021/09/25 12:30:23;;;;;;;5.88;3.13;;;29.10;60.90;;;;;;5075694;28;20309;-70
2021/09/25 12:33:03;;;;;;;6.03;2.88;;;29.20;60.50;;;;;;5075470;28;20365;-70
2021/09/25 12:35:29;;;;;;;7.20;3.05;;;29.20;61.50;;;;;;5075324;28;20519;-70
2021/09/25 12:37:54;;;;;;;5.43;2.70;;;29.30;61.90;;;;;;5075295;28;20023;-70
2021/09/25 12:40:21;;;;;;;4.50;2.25;;;29.50;61.80;;;;;;5074551;28;20033;-70
2021/09/25 12:42:50;;;;;;;6.40;2.50;;;29.90;59.60;;;;;;5074243;28;20028;-70
2021/09/25 12:45:16;;;;;;;5.18;2.30;;;29.90;58.70;;;;;;5075469;28;20020;-70
2021/09/25 12:47:42;;;;;;;5.32;2.08;;;29.40;57.90;;;;;;5074305;28;20079;-69
2021/09/25 12:50:20;;;;;;;5.65;2.25;;;28.90;58.40;;;;;;5075132;28;20040;-70